Hornsby Bend, Texas
Current Conditions -  °F | °C
As of 8:53 AM on Friday 19 Dec 2014 (Local Time) from KAUS Reporting Station
Overcast Overcast  
Wind Chill: 44°   Ceiling: 4800
Heat Index: 49°   Visibility: 10mi
Dew Point: 49°   Wind: 12mph
Humidity: 100%   Direction: 40°NE
Pressure: 30.12"   Gusts: NA
Location:  30.2291°N, 97.5973°W
Report Text: KAUS 191453Z 04010KT 10SM SCT010 OVC048 09/09 A3012 RMK AO2 SLP199 60006 T00940094 51014 $
Loading
Personal Weather Stations






























Interactive Weather Map New forecast layout! Learn more

10-Day Weather Forecast

Advertisements
Track Severe Weather on mobile